sensor_id;sensor_type;location;lat;lon;timestamp;P1;durP1;ratioP1;P2;durP2;ratioP2
26600;SDS011;14241;49.260;10.496;2023-06-22T00:01:53;9.25;;;7.47;;
26600;SDS011;14241;49.260;10.496;2023-06-22T00:04:18;9.73;;;7.70;;
26600;SDS011;14241;49.260;10.496;2023-06-22T00:06:44;10.00;;;8.20;;
26600;SDS011;14241;49.260;10.496;2023-06-22T00:09:09;11.23;;;8.07;;
26600;SDS011;14241;49.260;10.496;2023-06-22T00:11:35;11.60;;;7.90;;
26600;SDS011;14241;49.260;10.496;2023-06-22T00:14:01;11.57;;;7.60;;
26600;SDS011;14241;49.260;10.496;2023-06-22T00:16:26;8.65;;;7.75;;
26600;SDS011;14241;49.260;10.496;2023-06-22T00:18:51;9.57;;;8.17;;
26600;SDS011;14241;49.260;10.496;2023-06-22T00:21:17;8.63;;;7.47;;
26600;SDS011;14241;49.260;10.496;2023-06-22T00:23:42;8.63;;;7.53;;
26600;SDS011;14241;49.260;10.496;2023-06-22T00:26:08;8.02;;;7.22;;
26600;SDS011;14241;49.260;10.496;2023-06-22T00:28:33;9.82;;;7.75;;
26600;SDS011;14241;49.260;10.496;2023-06-22T00:30:58;8.27;;;7.07;;
26600;SDS011;14241;49.260;10.496;2023-06-22T00:33:25;9.88;;;7.75;;
26600;SDS011;14241;49.260;10.496;2023-06-22T00:35:50;12.30;;;8.52;;
26600;SDS011;14241;49.260;10.496;2023-06-22T00:38:17;10.93;;;8.02;;
26600;SDS011;14241;49.260;10.496;2023-06-22T00:40:43;11.07;;;8.77;;
26600;SDS011;14241;49.260;10.496;2023-06-22T00:43:08;10.20;;;8.23;;
26600;SDS011;14241;49.260;10.496;2023-06-22T00:45:33;12.37;;;8.90;;
26600;SDS011;14241;49.260;10.496;2023-06-22T00:47:59;10.25;;;8.45;;
26600;SDS011;14241;49.260;10.496;2023-06-22T00:50:28;9.52;;;8.07;;
26600;SDS011;14241;49.260;10.496;2023-06-22T00:52:55;9.68;;;8.30;;
26600;SDS011;14241;49.260;10.496;2023-06-22T00:55:21;10.43;;;8.48;;
26600;SDS011;14241;49.260;10.496;2023-06-22T00:57:47;9.63;;;8.02;;
26600;SDS011;14241;49.260;10.496;2023-06-22T01:00:13;11.82;;;8.50;;
26600;SDS011;14241;49.260;10.496;2023-06-22T01:02:38;9.05;;;8.02;;
26600;SDS011;14241;49.260;10.496;2023-06-22T01:05:04;12.50;;;8.30;;
26600;SDS011;14241;49.260;10.496;2023-06-22T01:13:04;12.23;;;9.25;;
26600;SDS011;14241;49.260;10.496;2023-06-22T01:15:33;12.38;;;9.30;;
26600;SDS011;14241;49.260;10.496;2023-06-22T01:18:02;12.85;;;8.93;;
26600;SDS011;14241;49.260;10.496;2023-06-22T01:20:28;11.60;;;8.80;;
26600;SDS011;14241;49.260;10.496;2023-06-22T01:25:26;10.90;;;8.05;;
26600;SDS011;14241;49.260;10.496;2023-06-22T01:30:22;9.95;;;8.82;;
26600;SDS011;14241;49.260;10.496;2023-06-22T01:32:51;10.13;;;8.20;;
26600;SDS011;14241;49.260;10.496;2023-06-22T01:35:17;10.35;;;9.23;;
26600;SDS011;14241;49.260;10.496;2023-06-22T01:37:44;10.05;;;8.80;;
26600;SDS011;14241;49.260;10.496;2023-06-22T01:40:09;9.82;;;8.43;;
26600;SDS011;14241;49.260;10.496;2023-06-22T01:42:35;12.10;;;8.82;;
26600;SDS011;14241;49.260;10.496;2023-06-22T01:45:02;11.50;;;8.40;;
26600;SDS011;14241;49.260;10.496;2023-06-22T01:47:27;8.98;;;8.02;;
26600;SDS011;14241;49.260;10.496;2023-06-22T01:49:53;11.95;;;8.75;;
26600;SDS011;14241;49.260;10.496;2023-06-22T01:52:18;9.32;;;8.18;;
26600;SDS011;14241;49.260;10.496;2023-06-22T01:54:45;10.27;;;8.57;;
26600;SDS011;14241;49.260;10.496;2023-06-22T01:57:11;10.63;;;8.48;;
26600;SDS011;14241;49.260;10.496;2023-06-22T02:02:09;14.35;;;8.32;;
26600;SDS011;14241;49.260;10.496;2023-06-22T02:04:36;14.35;;;8.07;;
26600;SDS011;14241;49.260;10.496;2023-06-22T02:07:02;11.65;;;8.07;;
26600;SDS011;14241;49.260;10.496;2023-06-22T02:09:31;12.18;;;7.93;;
26600;SDS011;14241;49.260;10.496;2023-06-22T02:11:57;9.25;;;8.25;;
26600;SDS011;14241;49.260;10.496;2023-06-22T02:14:23;10.38;;;8.18;;
26600;SDS011;14241;49.260;10.496;2023-06-22T02:16:49;10.55;;;8.40;;
26600;SDS011;14241;49.260;10.496;2023-06-22T02:19:14;10.98;;;8.88;;
26600;SDS011;14241;49.260;10.496;2023-06-22T02:21:41;10.10;;;8.68;;
26600;SDS011;14241;49.260;10.496;2023-06-22T02:24:06;11.80;;;8.55;;
26600;SDS011;14241;49.260;10.496;2023-06-22T02:26:31;14.02;;;9.35;;
26600;SDS011;14241;49.260;10.496;2023-06-22T02:28:57;13.32;;;9.65;;
26600;SDS011;14241;49.260;10.496;2023-06-22T02:31:22;13.87;;;9.23;;
26600;SDS011;14241;49.260;10.496;2023-06-22T02:33:47;12.45;;;9.07;;
26600;SDS011;14241;49.260;10.496;2023-06-22T02:36:14;14.55;;;9.25;;
26600;SDS011;14241;49.260;10.496;2023-06-22T02:38:42;14.30;;;10.20;;
26600;SDS011;14241;49.260;10.496;2023-06-22T02:41:13;16.23;;;10.23;;
26600;SDS011;14241;49.260;10.496;2023-06-22T02:43:42;11.02;;;8.75;;
26600;SDS011;14241;49.260;10.496;2023-06-22T02:46:08;10.67;;;9.20;;
26600;SDS011;14241;49.260;10.496;2023-06-22T02:48:33;13.83;;;9.83;;
26600;SDS011;14241;49.260;10.496;2023-06-22T02:50:58;13.20;;;9.65;;
26600;SDS011;14241;49.260;10.496;2023-06-22T02:53:24;10.63;;;9.53;;
26600;SDS011;14241;49.260;10.496;2023-06-22T02:55:49;12.37;;;10.30;;
26600;SDS011;14241;49.260;10.496;2023-06-22T02:58:14;10.63;;;9.33;;
26600;SDS011;14241;49.260;10.496;2023-06-22T03:00:39;13.48;;;10.98;;
26600;SDS011;14241;49.260;10.496;2023-06-22T03:03:05;12.17;;;9.73;;
26600;SDS011;14241;49.260;10.496;2023-06-22T03:05:30;12.27;;;10.10;;
26600;SDS011;14241;49.260;10.496;2023-06-22T03:07:55;12.43;;;10.10;;
26600;SDS011;14241;49.260;10.496;2023-06-22T03:10:20;14.35;;;10.27;;
26600;SDS011;14241;49.260;10.496;2023-06-22T03:12:46;11.55;;;9.77;;
26600;SDS011;14241;49.260;10.496;2023-06-22T03:15:11;13.52;;;10.55;;
26600;SDS011;14241;49.260;10.496;2023-06-22T03:17:37;12.82;;;10.10;;
26600;SDS011;14241;49.260;10.496;2023-06-22T03:20:06;12.15;;;10.02;;
26600;SDS011;14241;49.260;10.496;2023-06-22T03:22:36;10.75;;;9.40;;
26600;SDS011;14241;49.260;10.496;2023-06-22T03:25:01;15.63;;;10.88;;
26600;SDS011;14241;49.260;10.496;2023-06-22T03:27:27;14.60;;;9.88;;
26600;SDS011;14241;49.260;10.496;2023-06-22T03:29:52;14.73;;;10.07;;
26600;SDS011;14241;49.260;10.496;2023-06-22T03:32:17;14.50;;;11.07;;
26600;SDS011;14241;49.260;10.496;2023-06-22T03:34:42;14.10;;;10.43;;
26600;SDS011;14241;49.260;10.496;2023-06-22T03:37:12;12.88;;;9.85;;
26600;SDS011;14241;49.260;10.496;2023-06-22T03:39:37;13.00;;;10.38;;
26600;SDS011;14241;49.260;10.496;2023-06-22T03:42:03;12.77;;;9.90;;
26600;SDS011;14241;49.260;10.496;2023-06-22T03:44:28;10.90;;;9.68;;
26600;SDS011;14241;49.260;10.496;2023-06-22T03:46:53;12.53;;;10.80;;
26600;SDS011;14241;49.260;10.496;2023-06-22T03:49:18;15.60;;;10.30;;
26600;SDS011;14241;49.260;10.496;2023-06-22T03:51:44;11.90;;;10.52;;
26600;SDS011;14241;49.260;10.496;2023-06-22T03:54:09;15.30;;;11.07;;
26600;SDS011;14241;49.260;10.496;2023-06-22T03:56:34;11.75;;;10.55;;
26600;SDS011;14241;49.260;10.496;2023-06-22T03:59:00;13.95;;;11.27;;
26600;SDS011;14241;49.260;10.496;2023-06-22T04:01:25;13.70;;;11.70;;
26600;SDS011;14241;49.260;10.496;2023-06-22T04:03:50;12.83;;;10.90;;
26600;SDS011;14241;49.260;10.496;2023-06-22T04:06:15;15.77;;;11.98;;
26600;SDS011;14241;49.260;10.496;2023-06-22T04:08:41;14.75;;;11.70;;
26600;SDS011;14241;49.260;10.496;2023-06-22T04:11:06;13.10;;;11.35;;
26600;SDS011;14241;49.260;10.496;2023-06-22T04:13:31;14.43;;;11.53;;
26600;SDS011;14241;49.260;10.496;2023-06-22T04:15:56;13.98;;;12.10;;
26600;SDS011;14241;49.260;10.496;2023-06-22T04:18:21;15.40;;;11.90;;
26600;SDS011;14241;49.260;10.496;2023-06-22T04:20:47;13.63;;;12.23;;
26600;SDS011;14241;49.260;10.496;2023-06-22T04:23:12;15.02;;;12.07;;
26600;SDS011;14241;49.260;10.496;2023-06-22T04:25:38;15.82;;;11.73;;
26600;SDS011;14241;49.260;10.496;2023-06-22T04:28:03;12.40;;;11.03;;
26600;SDS011;14241;49.260;10.496;2023-06-22T04:30:29;13.88;;;11.30;;
26600;SDS011;14241;49.260;10.496;2023-06-22T04:32:56;14.82;;;13.23;;
26600;SDS011;14241;49.260;10.496;2023-06-22T04:35:22;14.73;;;12.43;;
26600;SDS011;14241;49.260;10.496;2023-06-22T04:37:48;14.20;;;10.63;;
26600;SDS011;14241;49.260;10.496;2023-06-22T04:40:14;12.73;;;9.70;;
26600;SDS011;14241;49.260;10.496;2023-06-22T04:42:40;15.05;;;10.02;;
26600;SDS011;14241;49.260;10.496;2023-06-22T04:45:05;11.47;;;10.23;;
26600;SDS011;14241;49.260;10.496;2023-06-22T04:47:30;12.55;;;10.38;;
26600;SDS011;14241;49.260;10.496;2023-06-22T04:49:56;13.82;;;10.10;;
26600;SDS011;14241;49.260;10.496;2023-06-22T04:52:21;11.33;;;9.00;;
26600;SDS011;14241;49.260;10.496;2023-06-22T04:54:46;9.80;;;8.32;;
26600;SDS011;14241;49.260;10.496;2023-06-22T04:57:20;10.02;;;8.32;;
26600;SDS011;14241;49.260;10.496;2023-06-22T04:59:45;9.45;;;8.00;;
26600;SDS011;14241;49.260;10.496;2023-06-22T05:02:11;9.52;;;7.50;;
26600;SDS011;14241;49.260;10.496;2023-06-22T05:04:36;12.00;;;9.23;;
26600;SDS011;14241;49.260;10.496;2023-06-22T05:07:03;10.30;;;8.88;;
26600;SDS011;14241;49.260;10.496;2023-06-22T05:09:29;11.20;;;9.43;;
26600;SDS011;14241;49.260;10.496;2023-06-22T05:11:54;9.52;;;7.88;;
26600;SDS011;14241;49.260;10.496;2023-06-22T05:14:20;12.37;;;8.50;;
26600;SDS011;14241;49.260;10.496;2023-06-22T05:16:46;10.82;;;7.07;;
26600;SDS011;14241;49.260;10.496;2023-06-22T05:19:11;10.38;;;7.63;;
26600;SDS011;14241;49.260;10.496;2023-06-22T05:21:36;12.10;;;7.57;;
26600;SDS011;14241;49.260;10.496;2023-06-22T05:24:02;7.72;;;6.78;;
26600;SDS011;14241;49.260;10.496;2023-06-22T05:26:31;14.73;;;8.73;;
26600;SDS011;14241;49.260;10.496;2023-06-22T05:28:56;11.68;;;8.85;;
26600;SDS011;14241;49.260;10.496;2023-06-22T05:31:22;9.82;;;8.60;;
26600;SDS011;14241;49.260;10.496;2023-06-22T05:33:48;10.02;;;8.48;;
26600;SDS011;14241;49.260;10.496;2023-06-22T05:36:13;10.82;;;8.63;;
26600;SDS011;14241;49.260;10.496;2023-06-22T05:38:39;11.07;;;8.45;;
26600;SDS011;14241;49.260;10.496;2023-06-22T05:41:04;11.45;;;8.55;;
26600;SDS011;14241;49.260;10.496;2023-06-22T05:43:29;9.70;;;8.10;;
26600;SDS011;14241;49.260;10.496;2023-06-22T05:45:55;9.27;;;7.90;;
26600;SDS011;14241;49.260;10.496;2023-06-22T05:48:20;10.63;;;8.77;;
26600;SDS011;14241;49.260;10.496;2023-06-22T05:50:45;12.33;;;9.40;;
26600;SDS011;14241;49.260;10.496;2023-06-22T05:53:10;12.77;;;9.77;;
26600;SDS011;14241;49.260;10.496;2023-06-22T05:55:36;11.10;;;9.75;;
26600;SDS011;14241;49.260;10.496;2023-06-22T05:58:01;11.38;;;9.10;;
26600;SDS011;14241;49.260;10.496;2023-06-22T06:00:28;11.60;;;9.48;;
26600;SDS011;14241;49.260;10.496;2023-06-22T06:02:53;14.68;;;10.02;;
26600;SDS011;14241;49.260;10.496;2023-06-22T06:05:18;11.00;;;9.03;;
26600;SDS011;14241;49.260;10.496;2023-06-22T06:07:44;10.68;;;9.27;;
26600;SDS011;14241;49.260;10.496;2023-06-22T06:10:10;11.50;;;9.55;;
26600;SDS011;14241;49.260;10.496;2023-06-22T06:12:35;11.32;;;8.57;;
26600;SDS011;14241;49.260;10.496;2023-06-22T06:15:01;11.77;;;7.90;;
26600;SDS011;14241;49.260;10.496;2023-06-22T06:17:26;9.77;;;7.43;;
26600;SDS011;14241;49.260;10.496;2023-06-22T06:19:51;11.40;;;8.38;;
26600;SDS011;14241;49.260;10.496;2023-06-22T06:22:17;9.60;;;8.00;;
26600;SDS011;14241;49.260;10.496;2023-06-22T06:24:44;11.18;;;8.18;;
26600;SDS011;14241;49.260;10.496;2023-06-22T06:27:09;9.73;;;8.57;;
26600;SDS011;14241;49.260;10.496;2023-06-22T06:29:34;10.98;;;8.30;;
26600;SDS011;14241;49.260;10.496;2023-06-22T06:31:59;8.23;;;7.33;;
26600;SDS011;14241;49.260;10.496;2023-06-22T06:34:25;9.20;;;7.30;;
26600;SDS011;14241;49.260;10.496;2023-06-22T06:36:50;9.23;;;7.38;;
26600;SDS011;14241;49.260;10.496;2023-06-22T06:39:15;9.67;;;7.67;;
26600;SDS011;14241;49.260;10.496;2023-06-22T06:41:41;10.30;;;7.82;;
26600;SDS011;14241;49.260;10.496;2023-06-22T06:44:07;10.77;;;7.60;;
26600;SDS011;14241;49.260;10.496;2023-06-22T06:46:32;9.70;;;7.82;;
26600;SDS011;14241;49.260;10.496;2023-06-22T06:48:58;7.78;;;6.43;;
26600;SDS011;14241;49.260;10.496;2023-06-22T06:51:23;10.20;;;6.07;;
26600;SDS011;14241;49.260;10.496;2023-06-22T06:53:48;8.23;;;6.77;;
26600;SDS011;14241;49.260;10.496;2023-06-22T06:56:13;6.50;;;5.73;;
26600;SDS011;14241;49.260;10.496;2023-06-22T06:58:40;9.67;;;6.50;;
26600;SDS011;14241;49.260;10.496;2023-06-22T07:01:07;7.88;;;5.40;;
26600;SDS011;14241;49.260;10.496;2023-06-22T07:03:32;8.57;;;6.47;;
26600;SDS011;14241;49.260;10.496;2023-06-22T07:05:58;6.80;;;5.15;;
26600;SDS011;14241;49.260;10.496;2023-06-22T07:08:23;10.30;;;5.50;;
26600;SDS011;14241;49.260;10.496;2023-06-22T07:10:49;8.02;;;5.55;;
26600;SDS011;14241;49.260;10.496;2023-06-22T07:13:14;8.13;;;5.70;;
26600;SDS011;14241;49.260;10.496;2023-06-22T07:15:39;10.90;;;5.37;;
26600;SDS011;14241;49.260;10.496;2023-06-22T07:18:04;10.57;;;5.05;;
26600;SDS011;14241;49.260;10.496;2023-06-22T07:20:30;9.03;;;5.27;;
26600;SDS011;14241;49.260;10.496;2023-06-22T07:22:55;7.88;;;4.75;;
26600;SDS011;14241;49.260;10.496;2023-06-22T07:25:20;7.37;;;4.90;;
26600;SDS011;14241;49.260;10.496;2023-06-22T07:27:46;7.00;;;4.90;;
26600;SDS011;14241;49.260;10.496;2023-06-22T07:30:11;9.88;;;5.47;;
26600;SDS011;14241;49.260;10.496;2023-06-22T07:32:37;7.28;;;5.22;;
26600;SDS011;14241;49.260;10.496;2023-06-22T07:35:02;9.18;;;5.00;;
26600;SDS011;14241;49.260;10.496;2023-06-22T07:37:29;9.85;;;4.53;;
26600;SDS011;14241;49.260;10.496;2023-06-22T07:39:54;5.35;;;4.20;;
26600;SDS011;14241;49.260;10.496;2023-06-22T07:42:23;9.25;;;5.50;;
26600;SDS011;14241;49.260;10.496;2023-06-22T07:44:49;7.88;;;4.82;;
26600;SDS011;14241;49.260;10.496;2023-06-22T07:47:16;5.95;;;4.82;;
26600;SDS011;14241;49.260;10.496;2023-06-22T07:49:43;8.88;;;5.07;;
26600;SDS011;14241;49.260;10.496;2023-06-22T07:52:08;10.65;;;4.78;;
26600;SDS011;14241;49.260;10.496;2023-06-22T07:54:33;6.93;;;4.43;;
26600;SDS011;14241;49.260;10.496;2023-06-22T07:56:58;7.87;;;4.87;;
26600;SDS011;14241;49.260;10.496;2023-06-22T07:59:23;10.10;;;5.23;;
26600;SDS011;14241;49.260;10.496;2023-06-22T08:01:49;8.07;;;4.68;;
26600;SDS011;14241;49.260;10.496;2023-06-22T08:04:14;8.55;;;4.97;;
26600;SDS011;14241;49.260;10.496;2023-06-22T08:06:39;7.43;;;5.00;;
26600;SDS011;14241;49.260;10.496;2023-06-22T08:09:05;6.85;;;4.22;;
26600;SDS011;14241;49.260;10.496;2023-06-22T08:11:30;8.37;;;5.07;;
26600;SDS011;14241;49.260;10.496;2023-06-22T08:13:55;8.52;;;4.88;;
26600;SDS011;14241;49.260;10.496;2023-06-22T08:16:23;8.25;;;4.40;;
26600;SDS011;14241;49.260;10.496;2023-06-22T08:18:48;7.82;;;4.47;;
26600;SDS011;14241;49.260;10.496;2023-06-22T08:21:13;8.77;;;4.57;;
26600;SDS011;14241;49.260;10.496;2023-06-22T08:23:38;8.70;;;4.30;;
26600;SDS011;14241;49.260;10.496;2023-06-22T08:26:03;7.57;;;4.93;;
26600;SDS011;14241;49.260;10.496;2023-06-22T08:28:29;10.10;;;4.55;;
26600;SDS011;14241;49.260;10.496;2023-06-22T08:30:54;11.23;;;5.03;;
26600;SDS011;14241;49.260;10.496;2023-06-22T08:33:20;6.70;;;3.97;;
26600;SDS011;14241;49.260;10.496;2023-06-22T08:35:48;9.93;;;4.90;;
26600;SDS011;14241;49.260;10.496;2023-06-22T08:38:15;8.38;;;4.97;;
26600;SDS011;14241;49.260;10.496;2023-06-22T08:40:40;9.25;;;4.53;;
26600;SDS011;14241;49.260;10.496;2023-06-22T08:43:05;7.55;;;4.88;;
26600;SDS011;14241;49.260;10.496;2023-06-22T08:45:31;6.10;;;4.40;;
26600;SDS011;14241;49.260;10.496;2023-06-22T08:47:56;6.77;;;4.20;;
26600;SDS011;14241;49.260;10.496;2023-06-22T08:50:21;8.32;;;4.53;;
26600;SDS011;14241;49.260;10.496;2023-06-22T08:52:46;7.63;;;4.23;;
26600;SDS011;14241;49.260;10.496;2023-06-22T08:55:12;11.73;;;5.13;;
26600;SDS011;14241;49.260;10.496;2023-06-22T08:57:37;8.77;;;5.43;;
26600;SDS011;14241;49.260;10.496;2023-06-22T09:00:05;8.52;;;4.22;;
26600;SDS011;14241;49.260;10.496;2023-06-22T09:02:36;11.52;;;4.65;;
26600;SDS011;14241;49.260;10.496;2023-06-22T09:05:02;6.88;;;4.03;;
26600;SDS011;14241;49.260;10.496;2023-06-22T09:07:28;9.90;;;4.60;;
26600;SDS011;14241;49.260;10.496;2023-06-22T09:09:53;11.37;;;4.73;;
26600;SDS011;14241;49.260;10.496;2023-06-22T09:12:19;8.00;;;3.90;;
26600;SDS011;14241;49.260;10.496;2023-06-22T09:14:45;8.60;;;4.35;;
26600;SDS011;14241;49.260;10.496;2023-06-22T09:17:11;8.77;;;4.05;;
26600;SDS011;14241;49.260;10.496;2023-06-22T09:19:37;11.75;;;4.97;;
26600;SDS011;14241;49.260;10.496;2023-06-22T09:22:02;10.50;;;4.13;;
26600;SDS011;14241;49.260;10.496;2023-06-22T09:24:28;7.07;;;3.53;;
26600;SDS011;14241;49.260;10.496;2023-06-22T09:26:53;8.80;;;3.77;;
26600;SDS011;14241;49.260;10.496;2023-06-22T09:29:19;11.90;;;4.55;;
26600;SDS011;14241;49.260;10.496;2023-06-22T09:31:44;10.90;;;4.40;;
26600;SDS011;14241;49.260;10.496;2023-06-22T09:34:09;6.28;;;4.00;;
26600;SDS011;14241;49.260;10.496;2023-06-22T09:36:34;7.43;;;4.57;;
26600;SDS011;14241;49.260;10.496;2023-06-22T09:39:00;9.38;;;4.20;;
26600;SDS011;14241;49.260;10.496;2023-06-22T09:41:30;10.25;;;3.90;;
26600;SDS011;14241;49.260;10.496;2023-06-22T09:43:56;6.50;;;3.78;;
26600;SDS011;14241;49.260;10.496;2023-06-22T09:46:21;7.93;;;3.83;;
26600;SDS011;14241;49.260;10.496;2023-06-22T09:48:50;13.40;;;4.18;;
26600;SDS011;14241;49.260;10.496;2023-06-22T09:51:15;8.23;;;3.50;;
26600;SDS011;14241;49.260;10.496;2023-06-22T09:53:40;8.07;;;3.67;;
26600;SDS011;14241;49.260;10.496;2023-06-22T09:56:05;9.00;;;4.20;;
26600;SDS011;14241;49.260;10.496;2023-06-22T09:58:31;8.68;;;3.70;;
26600;SDS011;14241;49.260;10.496;2023-06-22T10:00:56;7.30;;;3.83;;
26600;SDS011;14241;49.260;10.496;2023-06-22T10:03:22;9.30;;;4.35;;
26600;SDS011;14241;49.260;10.496;2023-06-22T10:05:47;9.07;;;3.78;;
26600;SDS011;14241;49.260;10.496;2023-06-22T10:08:13;13.37;;;4.20;;
26600;SDS011;14241;49.260;10.496;2023-06-22T10:10:38;10.52;;;4.22;;
26600;SDS011;14241;49.260;10.496;2023-06-22T10:13:09;11.47;;;3.87;;
26600;SDS011;14241;49.260;10.496;2023-06-22T10:15:35;17.25;;;3.90;;
26600;SDS011;14241;49.260;10.496;2023-06-22T10:18:00;7.47;;;3.97;;
26600;SDS011;14241;49.260;10.496;2023-06-22T10:20:26;11.93;;;3.60;;
26600;SDS011;14241;49.260;10.496;2023-06-22T10:22:51;11.60;;;3.83;;
26600;SDS011;14241;49.260;10.496;2023-06-22T10:25:16;8.15;;;3.58;;
26600;SDS011;14241;49.260;10.496;2023-06-22T10:27:42;11.25;;;3.75;;
26600;SDS011;14241;49.260;10.496;2023-06-22T10:30:08;8.15;;;3.78;;
26600;SDS011;14241;49.260;10.496;2023-06-22T10:32:33;11.55;;;4.07;;
26600;SDS011;14241;49.260;10.496;2023-06-22T10:34:58;13.80;;;3.80;;
26600;SDS011;14241;49.260;10.496;2023-06-22T10:37:23;8.27;;;3.47;;
26600;SDS011;14241;49.260;10.496;2023-06-22T10:39:49;12.63;;;3.60;;
26600;SDS011;14241;49.260;10.496;2023-06-22T10:42:14;10.07;;;3.40;;
26600;SDS011;14241;49.260;10.496;2023-06-22T10:44:39;9.80;;;3.40;;
26600;SDS011;14241;49.260;10.496;2023-06-22T10:47:06;6.10;;;3.55;;
26600;SDS011;14241;49.260;10.496;2023-06-22T10:49:31;10.73;;;4.07;;
26600;SDS011;14241;49.260;10.496;2023-06-22T10:51:56;13.40;;;3.90;;
26600;SDS011;14241;49.260;10.496;2023-06-22T10:54:22;10.83;;;3.77;;
26600;SDS011;14241;49.260;10.496;2023-06-22T10:56:47;6.27;;;3.30;;
26600;SDS011;14241;49.260;10.496;2023-06-22T10:59:12;11.97;;;4.07;;
26600;SDS011;14241;49.260;10.496;2023-06-22T11:01:37;11.50;;;4.33;;
26600;SDS011;14241;49.260;10.496;2023-06-22T11:04:03;10.33;;;4.00;;
26600;SDS011;14241;49.260;10.496;2023-06-22T11:06:28;10.77;;;3.40;;
26600;SDS011;14241;49.260;10.496;2023-06-22T11:08:54;7.80;;;3.80;;
26600;SDS011;14241;49.260;10.496;2023-06-22T11:11:19;6.50;;;3.47;;
26600;SDS011;14241;49.260;10.496;2023-06-22T11:13:44;10.83;;;3.30;;
26600;SDS011;14241;49.260;10.496;2023-06-22T11:16:10;13.57;;;3.50;;
26600;SDS011;14241;49.260;10.496;2023-06-22T11:18:35;12.10;;;4.07;;
26600;SDS011;14241;49.260;10.496;2023-06-22T11:21:00;9.23;;;3.60;;
26600;SDS011;14241;49.260;10.496;2023-06-22T11:23:25;12.47;;;3.53;;
26600;SDS011;14241;49.260;10.496;2023-06-22T11:25:52;11.40;;;4.03;;
26600;SDS011;14241;49.260;10.496;2023-06-22T11:28:18;12.73;;;4.30;;
26600;SDS011;14241;49.260;10.496;2023-06-22T11:30:43;11.23;;;4.20;;
26600;SDS011;14241;49.260;10.496;2023-06-22T11:33:08;10.93;;;3.87;;
26600;SDS011;14241;49.260;10.496;2023-06-22T11:35:33;7.87;;;3.57;;
26600;SDS011;14241;49.260;10.496;2023-06-22T11:37:59;7.73;;;3.17;;
26600;SDS011;14241;49.260;10.496;2023-06-22T11:40:24;14.52;;;4.10;;
26600;SDS011;14241;49.260;10.496;2023-06-22T11:42:49;9.13;;;3.90;;
26600;SDS011;14241;49.260;10.496;2023-06-22T11:45:14;11.13;;;3.97;;
26600;SDS011;14241;49.260;10.496;2023-06-22T11:47:40;7.15;;;3.38;;
26600;SDS011;14241;49.260;10.496;2023-06-22T11:50:06;11.38;;;3.70;;
26600;SDS011;14241;49.260;10.496;2023-06-22T11:52:32;11.85;;;4.07;;
26600;SDS011;14241;49.260;10.496;2023-06-22T11:54:58;10.68;;;3.63;;
26600;SDS011;14241;49.260;10.496;2023-06-22T11:57:24;13.23;;;3.83;;
26600;SDS011;14241;49.260;10.496;2023-06-22T11:59:49;5.32;;;3.15;;
26600;SDS011;14241;49.260;10.496;2023-06-22T12:02:15;5.77;;;3.23;;
26600;SDS011;14241;49.260;10.496;2023-06-22T12:04:40;13.47;;;4.03;;
26600;SDS011;14241;49.260;10.496;2023-06-22T12:07:05;12.80;;;4.10;;
26600;SDS011;14241;49.260;10.496;2023-06-22T12:09:30;15.63;;;3.60;;
26600;SDS011;14241;49.260;10.496;2023-06-22T12:11:55;7.77;;;4.13;;
26600;SDS011;14241;49.260;10.496;2023-06-22T12:14:21;11.97;;;3.90;;
26600;SDS011;14241;49.260;10.496;2023-06-22T12:16:46;12.98;;;3.45;;
26600;SDS011;14241;49.260;10.496;2023-06-22T12:19:11;11.98;;;4.47;;
26600;SDS011;14241;49.260;10.496;2023-06-22T12:21:37;10.55;;;4.03;;
26600;SDS011;14241;49.260;10.496;2023-06-22T12:24:02;10.27;;;4.07;;
26600;SDS011;14241;49.260;10.496;2023-06-22T12:26:28;8.10;;;3.67;;
26600;SDS011;14241;49.260;10.496;2023-06-22T12:28:53;17.73;;;4.10;;
26600;SDS011;14241;49.260;10.496;2023-06-22T12:31:18;16.70;;;4.63;;
26600;SDS011;14241;49.260;10.496;2023-06-22T12:33:43;8.43;;;3.85;;
26600;SDS011;14241;49.260;10.496;2023-06-22T12:36:08;12.37;;;4.33;;
26600;SDS011;14241;49.260;10.496;2023-06-22T12:38:34;12.30;;;4.50;;
26600;SDS011;14241;49.260;10.496;2023-06-22T12:40:59;11.87;;;4.03;;
26600;SDS011;14241;49.260;10.496;2023-06-22T12:43:24;9.67;;;3.97;;
26600;SDS011;14241;49.260;10.496;2023-06-22T12:45:49;11.23;;;3.40;;
26600;SDS011;14241;49.260;10.496;2023-06-22T12:48:14;10.60;;;3.73;;
26600;SDS011;14241;49.260;10.496;2023-06-22T12:50:40;16.60;;;4.17;;
26600;SDS011;14241;49.260;10.496;2023-06-22T12:53:05;14.90;;;4.17;;
26600;SDS011;14241;49.260;10.496;2023-06-22T12:55:31;11.50;;;4.43;;
26600;SDS011;14241;49.260;10.496;2023-06-22T12:57:56;9.88;;;3.38;;
26600;SDS011;14241;49.260;10.496;2023-06-22T13:00:21;10.10;;;3.70;;
26600;SDS011;14241;49.260;10.496;2023-06-22T13:02:47;12.80;;;4.40;;
26600;SDS011;14241;49.260;10.496;2023-06-22T13:05:12;8.83;;;4.17;;
26600;SDS011;14241;49.260;10.496;2023-06-22T13:07:37;11.30;;;4.10;;
26600;SDS011;14241;49.260;10.496;2023-06-22T13:10:02;9.07;;;4.10;;
26600;SDS011;14241;49.260;10.496;2023-06-22T13:12:28;12.90;;;4.20;;
26600;SDS011;14241;49.260;10.496;2023-06-22T13:14:53;15.57;;;3.80;;
26600;SDS011;14241;49.260;10.496;2023-06-22T13:17:18;12.15;;;3.80;;
26600;SDS011;14241;49.260;10.496;2023-06-22T13:19:44;12.73;;;4.40;;
26600;SDS011;14241;49.260;10.496;2023-06-22T13:24:54;12.00;;;4.77;;
26600;SDS011;14241;49.260;10.496;2023-06-22T13:27:19;8.90;;;4.18;;
26600;SDS011;14241;49.260;10.496;2023-06-22T13:29:44;11.97;;;4.50;;
26600;SDS011;14241;49.260;10.496;2023-06-22T13:32:10;10.63;;;4.37;;
26600;SDS011;14241;49.260;10.496;2023-06-22T13:34:35;10.53;;;4.33;;
26600;SDS011;14241;49.260;10.496;2023-06-22T13:37:00;11.03;;;4.37;;
26600;SDS011;14241;49.260;10.496;2023-06-22T13:39:25;12.30;;;4.57;;
26600;SDS011;14241;49.260;10.496;2023-06-22T13:41:50;11.50;;;4.10;;
26600;SDS011;14241;49.260;10.496;2023-06-22T13:44:16;14.35;;;5.20;;
26600;SDS011;14241;49.260;10.496;2023-06-22T13:46:41;16.17;;;4.47;;
26600;SDS011;14241;49.260;10.496;2023-06-22T13:49:07;15.48;;;5.20;;
26600;SDS011;14241;49.260;10.496;2023-06-22T13:51:32;12.43;;;4.53;;
26600;SDS011;14241;49.260;10.496;2023-06-22T13:53:57;13.20;;;4.20;;
26600;SDS011;14241;49.260;10.496;2023-06-22T13:56:23;10.20;;;4.20;;
26600;SDS011;14241;49.260;10.496;2023-06-22T13:58:48;12.67;;;4.50;;
26600;SDS011;14241;49.260;10.496;2023-06-22T14:01:13;11.30;;;4.40;;
26600;SDS011;14241;49.260;10.496;2023-06-22T14:03:38;11.17;;;4.20;;
26600;SDS011;14241;49.260;10.496;2023-06-22T14:06:04;9.75;;;3.85;;
26600;SDS011;14241;49.260;10.496;2023-06-22T14:08:29;11.65;;;4.20;;
26600;SDS011;14241;49.260;10.496;2023-06-22T14:10:54;10.17;;;4.87;;
26600;SDS011;14241;49.260;10.496;2023-06-22T14:13:20;9.33;;;4.30;;
26600;SDS011;14241;49.260;10.496;2023-06-22T14:15:45;15.47;;;4.47;;
26600;SDS011;14241;49.260;10.496;2023-06-22T14:18:13;14.52;;;4.45;;
26600;SDS011;14241;49.260;10.496;2023-06-22T14:20:39;14.50;;;4.30;;
26600;SDS011;14241;49.260;10.496;2023-06-22T14:23:05;13.38;;;4.43;;
26600;SDS011;14241;49.260;10.496;2023-06-22T14:25:30;14.40;;;4.32;;
26600;SDS011;14241;49.260;10.496;2023-06-22T14:27:55;9.93;;;4.50;;
26600;SDS011;14241;49.260;10.496;2023-06-22T14:30:20;11.90;;;4.50;;